createdAt,value
2018-07-22T00:02:12.593Z,21.57
2018-07-22T00:04:41.622Z,21.54
2018-07-22T00:07:10.713Z,21.69
2018-07-22T00:09:40.126Z,21.54
2018-07-22T00:12:09.226Z,21.48
2018-07-22T00:14:38.524Z,21.44
2018-07-22T00:17:07.600Z,21.48
2018-07-22T00:19:36.684Z,21.44
2018-07-22T00:22:05.980Z,21.34
2018-07-22T00:24:35.071Z,21.36
2018-07-22T00:27:04.096Z,21.32
2018-07-22T00:29:33.131Z,21.30
2018-07-22T00:32:02.348Z,21.40
2018-07-22T00:34:31.590Z,21.36
2018-07-22T00:37:00.652Z,21.31
2018-07-22T00:39:29.804Z,21.31
2018-07-22T00:41:59.429Z,21.30
2018-07-22T00:44:28.656Z,21.34
2018-07-22T00:46:57.670Z,21.36
2018-07-22T00:49:26.804Z,21.38
2018-07-22T00:51:55.865Z,21.36
2018-07-22T00:54:24.996Z,21.36
2018-07-22T00:56:54.069Z,21.41
2018-07-22T00:59:23.152Z,21.52
2018-07-22T01:01:52.222Z,21.50
2018-07-22T01:04:21.300Z,21.67
2018-07-22T01:06:50.422Z,21.61
2018-07-22T01:09:19.477Z,21.38
2018-07-22T01:11:48.564Z,21.40
2018-07-22T01:14:17.768Z,21.47
2018-07-22T01:16:46.836Z,21.49
2018-07-22T01:19:15.853Z,21.44
2018-07-22T01:21:45.082Z,21.29
2018-07-22T01:24:14.136Z,21.47
2018-07-22T01:26:43.375Z,21.43
2018-07-22T01:29:12.427Z,21.41
2018-07-22T01:31:41.480Z,21.26
2018-07-22T01:34:10.544Z,20.98
2018-07-22T01:36:39.627Z,21.08
2018-07-22T01:39:09.892Z,21.15
2018-07-22T01:41:39.141Z,21.21
2018-07-22T01:44:08.441Z,21.17
2018-07-22T01:46:37.716Z,21.05
2018-07-22T01:49:06.773Z,21.21
2018-07-22T01:51:35.819Z,21.15
2018-07-22T01:54:04.903Z,21.23
2018-07-22T01:56:33.902Z,21.10
2018-07-22T01:59:03.166Z,21.11
2018-07-22T02:01:32.229Z,20.85
2018-07-22T02:04:01.253Z,20.77
2018-07-22T02:06:30.307Z,20.55
2018-07-22T02:08:59.779Z,20.47
2018-07-22T02:11:28.844Z,20.62
2018-07-22T02:13:57.907Z,20.62
2018-07-22T02:16:26.999Z,20.63
2018-07-22T02:18:56.064Z,20.56
2018-07-22T02:21:25.134Z,20.57
2018-07-22T02:23:54.161Z,20.50
2018-07-22T02:26:23.327Z,20.39
2018-07-22T02:28:52.453Z,20.30
2018-07-22T02:31:21.599Z,20.31
2018-07-22T02:33:50.657Z,20.13
2018-07-22T02:36:19.783Z,20.21
2018-07-22T02:38:48.847Z,20.23
2018-07-22T02:41:17.933Z,20.45
2018-07-22T02:43:47.113Z,20.25
2018-07-22T02:46:16.273Z,19.99
2018-07-22T02:48:45.283Z,19.92
2018-07-22T02:51:14.463Z,19.84
2018-07-22T02:53:43.502Z,20.03
2018-07-22T02:56:12.800Z,19.83
2018-07-22T02:58:41.895Z,20.05
2018-07-22T03:01:10.912Z,20.09
2018-07-22T03:03:39.989Z,20.05
2018-07-22T03:06:09.022Z,20.13
2018-07-22T03:08:38.046Z,20.25
2018-07-22T03:11:07.417Z,20.33
2018-07-22T03:13:36.480Z,20.34
2018-07-22T03:16:05.831Z,20.27
2018-07-22T03:18:34.875Z,20.26
2018-07-22T03:21:03.964Z,20.36
2018-07-22T03:23:33.056Z,20.38
2018-07-22T03:26:02.069Z,20.40
2018-07-22T03:28:31.171Z,20.31
2018-07-22T03:31:00.252Z,20.36
2018-07-22T03:33:29.332Z,20.21
2018-07-22T03:35:59.145Z,20.34
2018-07-22T03:38:28.944Z,20.40
2018-07-22T03:40:57.995Z,20.45
2018-07-22T03:43:27.085Z,20.50
2018-07-22T03:45:56.183Z,20.44
2018-07-22T03:48:25.244Z,20.49
2018-07-22T03:50:54.316Z,20.57
2018-07-22T03:53:23.456Z,20.15
2018-07-22T03:55:52.524Z,20.16
2018-07-22T03:58:21.592Z,20.29
2018-07-22T04:00:50.753Z,20.33
2018-07-22T04:03:20.035Z,20.34
2018-07-22T04:05:49.124Z,20.11
2018-07-22T04:08:18.271Z,20.44
2018-07-22T04:10:47.324Z,20.42
2018-07-22T04:13:16.412Z,20.67
2018-07-22T04:15:45.524Z,20.56
2018-07-22T04:18:14.622Z,20.56
2018-07-22T04:20:43.703Z,20.72
2018-07-22T04:23:12.762Z,20.65
2018-07-22T04:25:41.831Z,20.64
2018-07-22T04:28:10.958Z,20.85
2018-07-22T04:30:40.029Z,21.01
2018-07-22T04:33:09.146Z,20.97
2018-07-22T04:35:38.240Z,21.05
2018-07-22T04:38:07.451Z,21.09
2018-07-22T04:40:36.482Z,21.07
2018-07-22T04:43:05.576Z,20.86
2018-07-22T04:45:34.709Z,21.10
2018-07-22T04:48:03.768Z,20.94
2018-07-22T04:50:32.871Z,20.99
2018-07-22T04:53:02.155Z,20.92
2018-07-22T04:55:31.246Z,20.92
2018-07-22T04:58:00.344Z,21.20
2018-07-22T05:00:29.458Z,21.21
2018-07-22T05:02:58.767Z,21.37
2018-07-22T05:05:27.824Z,21.28
2018-07-22T05:07:56.879Z,21.35
2018-07-22T05:10:26.480Z,21.49
2018-07-22T05:12:55.568Z,21.50
2018-07-22T05:15:24.612Z,21.56
2018-07-22T05:17:53.647Z,21.64
2018-07-22T05:20:22.955Z,21.60
2018-07-22T05:22:52.033Z,21.77
2018-07-22T05:25:21.079Z,21.68
2018-07-22T05:27:50.204Z,21.56
2018-07-22T05:30:19.255Z,21.73
2018-07-22T05:32:48.551Z,22.00
2018-07-22T05:35:17.763Z,21.81
2018-07-22T05:37:46.848Z,22.01
2018-07-22T05:40:15.987Z,22.00
2018-07-22T05:42:45.659Z,21.93
2018-07-22T05:45:14.752Z,22.18
2018-07-22T05:47:43.852Z,22.32
2018-07-22T05:50:12.909Z,22.25
2018-07-22T05:52:42.047Z,21.98
2018-07-22T05:55:11.549Z,21.90
2018-07-22T05:57:40.689Z,21.99
2018-07-22T06:00:10.793Z,22.27
2018-07-22T06:02:39.892Z,22.65
2018-07-22T06:05:09.307Z,22.90
2018-07-22T06:07:38.519Z,22.68
2018-07-22T06:10:07.959Z,22.65
2018-07-22T06:12:37.069Z,22.74
2018-07-22T06:15:07.271Z,22.94
2018-07-22T06:17:36.495Z,23.26
2018-07-22T06:20:06.845Z,23.29
2018-07-22T06:22:36.099Z,23.42
2018-07-22T06:25:05.588Z,23.35
2018-07-22T06:27:34.785Z,23.44
2018-07-22T06:30:04.050Z,23.36
2018-07-22T06:32:33.670Z,23.52
2018-07-22T06:35:02.816Z,23.81
2018-07-22T06:37:31.870Z,23.67
2018-07-22T06:40:00.898Z,23.86
2018-07-22T06:42:30.058Z,23.76
2018-07-22T06:44:59.093Z,23.96
2018-07-22T06:47:28.193Z,23.90
2018-07-22T06:49:57.319Z,24.01
2018-07-22T06:52:26.370Z,24.29
2018-07-22T06:54:55.614Z,24.21
2018-07-22T06:57:24.642Z,24.36
2018-07-22T06:59:53.718Z,24.37
2018-07-22T07:02:22.826Z,24.56
2018-07-22T07:04:51.898Z,24.93
2018-07-22T07:07:20.946Z,25.18
2018-07-22T07:09:50.032Z,24.88
2018-07-22T07:12:19.179Z,25.23
2018-07-22T07:14:48.450Z,25.47
2018-07-22T07:17:17.544Z,25.60
2018-07-22T07:19:46.632Z,25.31
2018-07-22T07:22:16.081Z,25.19
2018-07-22T07:24:45.321Z,25.45
2018-07-22T07:27:14.581Z,25.90
2018-07-22T07:29:43.662Z,25.70
2018-07-22T07:32:13.113Z,26.02
2018-07-22T07:34:42.150Z,25.82
2018-07-22T07:37:11.450Z,25.95
2018-07-22T07:39:40.547Z,26.12
2018-07-22T07:42:09.609Z,26.27
2018-07-22T07:44:38.626Z,26.26
2018-07-22T07:47:07.710Z,26.32
2018-07-22T07:49:36.805Z,26.51
2018-07-22T07:52:05.816Z,26.56
2018-07-22T07:54:34.994Z,26.07
2018-07-22T07:57:04.196Z,26.18
2018-07-22T07:59:33.362Z,26.29
2018-07-22T08:02:02.367Z,26.15
2018-07-22T08:04:31.462Z,25.98
2018-07-22T08:07:00.680Z,25.91
2018-07-22T08:09:29.884Z,25.83
2018-07-22T08:11:58.910Z,25.86
2018-07-22T08:14:28.044Z,26.14
2018-07-22T08:16:57.134Z,25.92
2018-07-22T08:19:26.281Z,25.96
2018-07-22T08:21:55.607Z,26.15
2018-07-22T08:24:24.473Z,26.55
2018-07-22T08:26:53.543Z,26.33
2018-07-22T08:29:26.118Z,26.12
2018-07-22T08:31:55.226Z,25.91
2018-07-22T08:34:24.298Z,26.21
2018-07-22T08:36:53.370Z,26.47
2018-07-22T08:39:23.666Z,26.58
2018-07-22T08:41:53.455Z,27.05
2018-07-22T08:44:22.757Z,27.05
2018-07-22T08:46:51.819Z,27.19
2018-07-22T08:49:20.919Z,27.27
2018-07-22T08:51:49.925Z,27.17
2018-07-22T08:54:19.178Z,27.44
2018-07-22T08:56:48.794Z,27.75
2018-07-22T08:59:17.827Z,27.77
2018-07-22T09:01:47.090Z,27.79
2018-07-22T09:04:16.169Z,27.46
2018-07-22T09:06:45.288Z,27.69
2018-07-22T09:09:14.949Z,27.82
2018-07-22T09:11:44.163Z,27.73
2018-07-22T09:14:13.186Z,27.99
2018-07-22T09:16:42.235Z,28.71
2018-07-22T09:19:11.437Z,28.74
2018-07-22T09:21:40.672Z,28.04
2018-07-22T09:24:09.745Z,28.40
2018-07-22T09:26:38.864Z,28.24
2018-07-22T09:29:07.922Z,28.27
2018-07-22T09:31:36.944Z,28.48
2018-07-22T09:34:06.012Z,28.29
2018-07-22T09:36:35.172Z,27.97
2018-07-22T09:39:06.767Z,28.21
2018-07-22T09:41:35.928Z,28.46
2018-07-22T09:44:04.981Z,28.47
2018-07-22T09:46:34.103Z,28.50
2018-07-22T09:49:03.221Z,28.71
2018-07-22T09:51:32.277Z,28.71
2018-07-22T09:54:01.530Z,28.74
2018-07-22T09:56:30.672Z,28.45
2018-07-22T09:58:59.768Z,28.63
2018-07-22T10:01:28.891Z,28.40
2018-07-22T10:03:57.966Z,28.30
2018-07-22T10:06:27.218Z,28.56
2018-07-22T10:08:56.381Z,28.69
2018-07-22T10:11:25.702Z,28.91
2018-07-22T10:13:54.745Z,28.98
2018-07-22T10:16:23.761Z,29.14
2018-07-22T10:18:53.017Z,28.62
2018-07-22T10:21:22.103Z,28.61
2018-07-22T10:23:51.202Z,28.58
2018-07-22T10:26:20.289Z,28.93
2018-07-22T10:28:50.231Z,29.02
2018-07-22T10:31:19.539Z,29.36
2018-07-22T10:33:48.659Z,29.18
2018-07-22T10:36:17.831Z,30.09
2018-07-22T10:38:46.934Z,29.24
2018-07-22T10:41:16.122Z,29.29
2018-07-22T10:43:45.292Z,29.51
2018-07-22T10:46:14.445Z,29.48
2018-07-22T10:48:43.581Z,28.82
2018-07-22T10:51:12.790Z,29.54
2018-07-22T10:53:41.875Z,29.69
2018-07-22T10:56:11.215Z,29.40
2018-07-22T10:58:40.278Z,28.93
2018-07-22T11:01:09.419Z,28.84
2018-07-22T11:03:38.410Z,29.12
2018-07-22T11:06:07.624Z,28.93
2018-07-22T11:08:36.670Z,29.04
2018-07-22T11:11:05.800Z,29.92
2018-07-22T11:13:35.028Z,29.69
2018-07-22T11:16:04.080Z,29.73
2018-07-22T11:18:33.166Z,29.39
2018-07-22T11:21:02.285Z,29.70
2018-07-22T11:23:31.484Z,29.28
2018-07-22T11:26:00.624Z,29.32
2018-07-22T11:28:29.700Z,29.37
2018-07-22T11:30:58.797Z,29.83
2018-07-22T11:33:27.814Z,30.08
2018-07-22T11:35:57.100Z,30.67
2018-07-22T11:38:26.261Z,29.61
2018-07-22T11:40:55.303Z,30.25
2018-07-22T11:43:24.647Z,29.37
2018-07-22T11:45:53.946Z,29.44
2018-07-22T11:48:23.010Z,29.87
2018-07-22T11:50:52.464Z,29.51
2018-07-22T11:53:23.186Z,29.52
2018-07-22T11:55:52.395Z,29.39
2018-07-22T11:58:22.668Z,29.33
2018-07-22T12:00:51.798Z,29.55
2018-07-22T12:03:20.930Z,29.71
2018-07-22T12:05:50.272Z,29.96
2018-07-22T12:08:19.344Z,29.81
2018-07-22T12:10:48.771Z,29.77
2018-07-22T12:13:17.842Z,29.64
2018-07-22T12:15:47.142Z,29.58
2018-07-22T12:18:16.288Z,29.63
2018-07-22T12:20:45.634Z,29.30
2018-07-22T12:23:14.720Z,28.71
2018-07-22T12:25:43.884Z,28.92
2018-07-22T12:28:13.010Z,28.89
2018-07-22T12:30:42.069Z,29.12
2018-07-22T12:33:11.133Z,29.02
2018-07-22T12:35:40.284Z,29.90
2018-07-22T12:38:09.366Z,29.98
2018-07-22T12:40:38.996Z,29.94
2018-07-22T12:43:08.061Z,29.95
2018-07-22T12:45:37.180Z,30.17
2018-07-22T12:48:06.218Z,30.05
2018-07-22T12:50:35.279Z,30.02
2018-07-22T12:53:04.398Z,29.49
2018-07-22T12:55:33.491Z,29.61
2018-07-22T12:58:02.600Z,29.67
2018-07-22T13:00:31.674Z,29.52
2018-07-22T13:03:00.888Z,29.97
2018-07-22T13:05:30.064Z,30.17
2018-07-22T13:07:59.135Z,30.37
2018-07-22T13:10:28.174Z,30.74
2018-07-22T13:12:57.392Z,30.06
2018-07-22T13:15:26.676Z,30.26
2018-07-22T13:17:55.766Z,29.89
2018-07-22T13:20:24.848Z,29.82
2018-07-22T13:22:53.916Z,29.83
2018-07-22T13:25:22.990Z,29.82
2018-07-22T13:27:52.608Z,29.65
2018-07-22T13:30:21.932Z,30.13
2018-07-22T13:32:51.011Z,29.83
2018-07-22T13:35:20.349Z,29.75
2018-07-22T13:37:49.398Z,29.93
2018-07-22T13:40:19.164Z,30.15
2018-07-22T13:42:49.246Z,30.46
2018-07-22T13:45:18.425Z,30.16
2018-07-22T13:47:47.468Z,30.03
2018-07-22T13:50:16.615Z,30.69
2018-07-22T13:52:45.807Z,30.37
2018-07-22T13:55:14.910Z,30.43
2018-07-22T13:57:44.245Z,30.26
2018-07-22T14:00:13.452Z,30.12
2018-07-22T14:02:42.619Z,30.05
2018-07-22T14:05:11.927Z,30.51
2018-07-22T14:07:41.044Z,30.33
2018-07-22T14:10:10.337Z,30.25
2018-07-22T14:12:39.617Z,29.94
2018-07-22T14:15:08.885Z,29.98
2018-07-22T14:17:37.982Z,29.71
2018-07-22T14:20:07.276Z,29.36
2018-07-22T14:22:36.311Z,29.42
2018-07-22T14:25:06.282Z,29.77
2018-07-22T14:27:35.556Z,30.07
2018-07-22T14:30:05.667Z,29.39
2018-07-22T14:32:34.751Z,29.66
2018-07-22T14:35:03.860Z,29.49
2018-07-22T14:37:33.025Z,29.84
2018-07-22T14:40:02.246Z,29.67
2018-07-22T14:42:31.394Z,29.46
2018-07-22T14:45:00.556Z,30.11
2018-07-22T14:47:29.589Z,30.38
2018-07-22T14:49:58.754Z,29.98
2018-07-22T14:52:28.094Z,29.93
2018-07-22T14:54:57.131Z,29.93
2018-07-22T14:57:26.211Z,30.38
2018-07-22T14:59:56.234Z,30.04
2018-07-22T15:02:25.376Z,30.06
2018-07-22T15:04:54.502Z,29.99
2018-07-22T15:07:23.941Z,29.61
2018-07-22T15:09:53.170Z,30.02
2018-07-22T15:12:22.221Z,29.85
2018-07-22T15:14:51.360Z,29.34
2018-07-22T15:17:20.401Z,29.25
2018-07-22T15:19:49.512Z,29.24
2018-07-22T15:22:18.705Z,29.48
2018-07-22T15:24:47.863Z,29.68
2018-07-22T15:27:16.985Z,29.58
2018-07-22T15:29:46.092Z,29.51
2018-07-22T15:32:15.204Z,29.33
2018-07-22T15:34:44.384Z,29.19
2018-07-22T15:37:13.836Z,29.14
2018-07-22T15:39:43.001Z,29.30
2018-07-22T15:42:12.064Z,29.27
2018-07-22T15:44:41.852Z,29.51
2018-07-22T15:47:10.953Z,29.41
2018-07-22T15:49:40.124Z,29.24
2018-07-22T15:52:09.085Z,29.47
2018-07-22T15:54:38.181Z,29.56
2018-07-22T15:57:07.224Z,29.25
2018-07-22T15:59:36.255Z,29.42
2018-07-22T16:02:05.335Z,29.42
2018-07-22T16:04:34.521Z,29.28
2018-07-22T16:07:03.655Z,29.22
2018-07-22T16:09:32.866Z,29.23
2018-07-22T16:12:02.243Z,29.04
2018-07-22T16:14:31.436Z,28.98
2018-07-22T16:17:00.701Z,28.86
2018-07-22T16:19:29.724Z,28.90
2018-07-22T16:21:58.861Z,29.00
2018-07-22T16:24:28.028Z,29.15
2018-07-22T16:26:57.439Z,29.31
2018-07-22T16:29:26.726Z,29.40
2018-07-22T16:31:55.886Z,29.40
2018-07-22T16:34:24.913Z,29.50
2018-07-22T16:36:53.983Z,29.93
2018-07-22T16:39:23.098Z,29.86
2018-07-22T16:41:52.162Z,29.96
2018-07-22T16:44:21.264Z,30.43
2018-07-22T16:46:50.564Z,30.83
2018-07-22T16:49:20.312Z,30.36
2018-07-22T16:51:49.491Z,29.87
2018-07-22T16:54:18.644Z,29.65
2018-07-22T16:56:47.714Z,29.46
2018-07-22T16:59:16.793Z,29.34
2018-07-22T17:01:45.857Z,29.42
2018-07-22T17:04:14.949Z,29.11
2018-07-22T17:06:43.978Z,29.39
2018-07-22T17:09:13.356Z,29.37
2018-07-22T17:11:42.538Z,29.46
2018-07-22T17:14:11.720Z,29.46
2018-07-22T17:16:41.139Z,29.33
2018-07-22T17:19:10.245Z,29.04
2018-07-22T17:21:39.428Z,29.29
2018-07-22T17:24:08.602Z,29.63
2018-07-22T17:26:37.739Z,29.58
2018-07-22T17:29:06.779Z,29.03
2018-07-22T17:31:35.819Z,29.26
2018-07-22T17:34:05.153Z,28.90
2018-07-22T17:36:34.511Z,29.20
2018-07-22T17:39:03.903Z,29.23
2018-07-22T17:41:35.926Z,29.14
2018-07-22T17:44:05.637Z,29.24
2018-07-22T17:46:34.852Z,29.34
2018-07-22T17:49:03.930Z,29.21
2018-07-22T17:51:33.347Z,29.15
2018-07-22T17:54:02.739Z,28.86
2018-07-22T17:56:31.785Z,28.99
2018-07-22T17:59:00.929Z,28.91
2018-07-22T18:01:30.027Z,28.80
2018-07-22T18:03:59.674Z,28.74
2018-07-22T18:06:28.815Z,28.54
2018-07-22T18:08:58.016Z,28.53
2018-07-22T18:11:27.040Z,28.13
2018-07-22T18:13:56.355Z,27.87
2018-07-22T18:16:25.461Z,27.96
2018-07-22T18:18:54.517Z,27.88
2018-07-22T18:21:24.047Z,27.74
2018-07-22T18:23:53.090Z,27.72
2018-07-22T18:26:22.254Z,27.74
2018-07-22T18:28:51.407Z,27.86
2018-07-22T18:31:21.089Z,27.89
2018-07-22T18:33:50.840Z,27.52
2018-07-22T18:36:19.992Z,27.48
2018-07-22T18:38:49.242Z,27.78
2018-07-22T18:41:18.360Z,27.74
2018-07-22T18:43:47.417Z,27.40
2018-07-22T18:46:16.548Z,27.48
2018-07-22T18:48:45.686Z,27.53
2018-07-22T18:51:15.656Z,27.34
2018-07-22T18:53:44.768Z,27.38
2018-07-22T18:56:14.211Z,27.28
2018-07-22T18:58:43.343Z,27.11
2018-07-22T19:01:12.501Z,27.21
2018-07-22T19:03:41.585Z,27.07
2018-07-22T19:06:10.683Z,27.04
2018-07-22T19:08:39.811Z,26.91
2018-07-22T19:11:08.967Z,26.84
2018-07-22T19:13:38.061Z,26.92
2018-07-22T19:16:08.142Z,26.54
2018-07-22T19:18:37.596Z,26.40
2018-07-22T19:21:06.825Z,26.63
2018-07-22T19:23:36.103Z,26.35
2018-07-22T19:26:05.235Z,26.46
2018-07-22T19:28:34.580Z,26.21
2018-07-22T19:31:03.733Z,26.34
2018-07-22T19:33:33.034Z,26.22
2018-07-22T19:36:02.073Z,26.10
2018-07-22T19:38:31.326Z,26.00
2018-07-22T19:41:00.679Z,25.87
2018-07-22T19:43:29.877Z,25.86
2018-07-22T19:45:59.079Z,25.70
2018-07-22T19:48:28.380Z,25.57
2018-07-22T19:50:57.464Z,25.53
2018-07-22T19:53:26.811Z,25.45
2018-07-22T19:55:55.941Z,25.42
2018-07-22T19:58:25.073Z,25.37
2018-07-22T20:00:55.070Z,25.29
2018-07-22T20:03:24.444Z,25.14
2018-07-22T20:05:53.544Z,25.01
2018-07-22T20:08:22.573Z,24.96
2018-07-22T20:10:51.614Z,24.87
2018-07-22T20:13:20.913Z,24.73
2018-07-22T20:15:50.063Z,24.68
2018-07-22T20:18:19.103Z,24.63
2018-07-22T20:20:48.355Z,24.64
2018-07-22T20:23:17.445Z,24.51
2018-07-22T20:25:46.599Z,24.57
2018-07-22T20:28:15.741Z,24.49
2018-07-22T20:30:44.790Z,24.41
2018-07-22T20:33:13.976Z,24.37
2018-07-22T20:35:43.102Z,24.35
2018-07-22T20:38:12.551Z,24.28
2018-07-22T20:40:41.878Z,24.34
2018-07-22T20:43:11.495Z,24.29
2018-07-22T20:45:40.814Z,24.23
2018-07-22T20:48:09.885Z,24.27
2018-07-22T20:50:39.591Z,24.10
2018-07-22T20:53:08.625Z,24.18
2018-07-22T20:55:37.923Z,24.23
2018-07-22T20:58:07.134Z,24.25
2018-07-22T21:00:41.097Z,24.10
2018-07-22T21:03:11.178Z,24.25
2018-07-22T21:05:40.231Z,24.21
2018-07-22T21:08:09.356Z,24.12
2018-07-22T21:10:39.012Z,23.90
2018-07-22T21:13:17.474Z,24.02
2018-07-22T21:15:46.638Z,24.00
2018-07-22T21:18:16.063Z,23.98
2018-07-22T21:20:45.341Z,23.93
2018-07-22T21:23:14.636Z,23.72
2018-07-22T21:25:44.038Z,23.57
2018-07-22T21:28:13.212Z,23.75
2018-07-22T21:30:42.476Z,23.58
2018-07-22T21:33:11.773Z,23.55
2018-07-22T21:35:41.771Z,23.59
2018-07-22T21:38:11.250Z,23.53
2018-07-22T21:40:40.590Z,23.71
2018-07-22T21:43:09.794Z,23.70
2018-07-22T21:45:38.915Z,23.59
2018-07-22T21:48:08.146Z,23.55
2018-07-22T21:50:37.316Z,23.64
2018-07-22T21:53:06.651Z,23.36
2018-07-22T21:55:35.812Z,23.58
2018-07-22T21:58:05.123Z,23.58
2018-07-22T22:00:39.751Z,23.55
2018-07-22T22:03:09.039Z,23.37
2018-07-22T22:05:38.212Z,23.35
2018-07-22T22:08:14.001Z,23.33
2018-07-22T22:10:43.457Z,23.22
2018-07-22T22:13:12.708Z,23.15
2018-07-22T22:15:41.895Z,23.18
2018-07-22T22:18:11.144Z,23.05
2018-07-22T22:20:40.474Z,23.01
2018-07-22T22:23:09.651Z,23.01
2018-07-22T22:25:38.837Z,22.90
2018-07-22T22:28:07.947Z,22.81
2018-07-22T22:30:37.032Z,22.80
2018-07-22T22:33:06.341Z,22.80
2018-07-22T22:35:36.044Z,22.76
2018-07-22T22:38:05.316Z,22.79
2018-07-22T22:40:34.399Z,22.79
2018-07-22T22:43:03.723Z,22.75
2018-07-22T22:45:32.875Z,22.60
2018-07-22T22:48:02.030Z,22.64
2018-07-22T22:50:31.325Z,22.65
2018-07-22T22:53:01.143Z,22.65
2018-07-22T22:55:30.203Z,22.47
2018-07-22T22:59:14.547Z,22.51
2018-07-22T23:01:43.786Z,22.46
2018-07-22T23:04:12.919Z,22.58
2018-07-22T23:06:42.025Z,22.66
2018-07-22T23:09:12.786Z,22.64
2018-07-22T23:11:42.148Z,22.37
2018-07-22T23:14:11.243Z,22.43
2018-07-22T23:16:40.807Z,22.64
2018-07-22T23:19:09.885Z,22.74
2018-07-22T23:21:39.140Z,22.66
2018-07-22T23:24:08.206Z,22.54
2018-07-22T23:26:37.303Z,22.53
2018-07-22T23:29:06.431Z,22.62
2018-07-22T23:31:35.615Z,22.60
2018-07-22T23:34:05.334Z,22.56
2018-07-22T23:36:34.531Z,22.43
2018-07-22T23:39:03.960Z,22.45
2018-07-22T23:41:33.217Z,22.37
2018-07-22T23:44:02.317Z,22.29
2018-07-22T23:46:31.556Z,22.24
2018-07-22T23:49:00.607Z,22.19
2018-07-22T23:51:29.697Z,22.13
2018-07-22T23:53:58.822Z,22.09
2018-07-22T23:56:27.906Z,22.09
2018-07-22T23:58:56.955Z,22.06
